createdAt,value
2023-04-16T00:02:26.257Z,3.03
2023-04-16T00:05:28.761Z,4.07
2023-04-16T00:08:31.183Z,3.72
2023-04-16T00:11:33.478Z,3.97
2023-04-16T00:14:35.832Z,3.75
2023-04-16T00:17:38.152Z,4.50
2023-04-16T00:20:40.551Z,3.80
2023-04-16T00:23:43.089Z,3.58
2023-04-16T00:26:46.661Z,3.50
2023-04-16T00:29:49.264Z,4.65
2023-04-16T00:32:51.544Z,3.83
2023-04-16T00:35:53.941Z,3.17
2023-04-16T00:38:57.360Z,5.10
2023-04-16T00:41:59.637Z,4.43
2023-04-16T00:45:01.963Z,4.82
2023-04-16T00:48:05.593Z,5.88
2023-04-16T00:51:09.260Z,5.63
2023-04-16T00:54:11.904Z,3.75
2023-04-16T00:57:15.161Z,6.22
2023-04-16T01:00:17.711Z,5.10
2023-04-16T01:03:20.300Z,6.13
2023-04-16T01:06:23.970Z,4.43
2023-04-16T01:09:26.516Z,3.75
2023-04-16T01:12:28.885Z,3.83
2023-04-16T01:15:31.268Z,5.22
2023-04-16T01:18:33.709Z,3.63
2023-04-16T01:21:36.089Z,6.55
2023-04-16T01:24:39.983Z,4.10
2023-04-16T01:27:46.042Z,6.57
2023-04-16T01:30:48.357Z,7.25
2023-04-16T01:34:10.942Z,3.70
2023-04-16T01:37:13.687Z,5.47
2023-04-16T01:40:15.989Z,4.97
2023-04-16T01:43:18.198Z,3.50
2023-04-16T01:46:32.468Z,3.80
2023-04-16T01:49:35.277Z,4.28
2023-04-16T01:52:37.685Z,4.75
2023-04-16T01:55:39.892Z,3.70
2023-04-16T01:58:43.132Z,3.70
2023-04-16T02:01:45.733Z,4.05
2023-04-16T02:04:48.031Z,2.90
2023-04-16T02:07:50.439Z,3.80
2023-04-16T02:10:52.905Z,2.65
2023-04-16T02:13:55.141Z,3.20
2023-04-16T02:16:57.656Z,4.93
2023-04-16T02:20:19.094Z,3.45
2023-04-16T02:23:28.988Z,2.92
2023-04-16T02:26:33.503Z,4.30
2023-04-16T02:29:41.096Z,3.67
2023-04-16T02:32:49.906Z,3.83
2023-04-16T02:35:52.815Z,3.55
2023-04-16T02:38:55.478Z,4.05
2023-04-16T02:41:58.174Z,3.85
2023-04-16T02:45:00.461Z,2.33
2023-04-16T02:48:02.782Z,3.45
2023-04-16T02:51:05.669Z,5.50
2023-04-16T02:54:07.936Z,3.80
2023-04-16T02:57:10.489Z,3.50
2023-04-16T03:00:13.172Z,3.20
2023-04-16T03:03:15.758Z,4.50
2023-04-16T03:06:18.121Z,3.63
2023-04-16T03:09:20.328Z,3.25
2023-04-16T03:12:22.581Z,3.17
2023-04-16T03:15:25.644Z,3.38
2023-04-16T03:18:27.937Z,3.20
2023-04-16T03:21:30.291Z,4.22
2023-04-16T03:24:33.977Z,4.03
2023-04-16T03:27:36.314Z,3.90
2023-04-16T03:30:38.808Z,3.70
2023-04-16T03:33:42.845Z,2.53
2023-04-16T03:36:45.198Z,3.08
2023-04-16T03:39:47.616Z,6.22
2023-04-16T03:42:50.665Z,2.78
2023-04-16T03:45:52.945Z,3.15
2023-04-16T03:48:58.453Z,3.90
2023-04-16T03:52:01.364Z,3.50
2023-04-16T03:55:04.328Z,4.78
2023-04-16T03:58:07.512Z,2.97
2023-04-16T04:01:09.859Z,3.45
2023-04-16T04:04:13.445Z,3.33
2023-04-16T04:07:16.793Z,4.53
2023-04-16T04:10:19.156Z,3.60
2023-04-16T04:13:21.521Z,5.00
2023-04-16T04:16:25.255Z,3.03
2023-04-16T04:19:27.549Z,3.75
2023-04-16T04:22:29.887Z,4.45
2023-04-16T04:25:32.299Z,4.38
2023-04-16T04:28:35.690Z,3.83
2023-04-16T04:31:38.133Z,3.88
2023-04-16T04:34:40.698Z,3.20
2023-04-16T04:37:44.268Z,3.35
2023-04-16T04:40:53.498Z,4.60
2023-04-16T04:43:57.621Z,3.92
2023-04-16T04:47:00.840Z,4.38
2023-04-16T04:50:03.458Z,3.00
2023-04-16T04:53:10.367Z,5.60
2023-04-16T04:56:13.674Z,4.72
2023-04-16T04:59:16.500Z,4.28
2023-04-16T05:02:19.826Z,5.05
2023-04-16T05:05:22.370Z,4.75
2023-04-16T05:08:24.740Z,5.22
2023-04-16T05:11:27.080Z,5.25
2023-04-16T05:14:29.317Z,4.78
2023-04-16T05:17:31.764Z,5.60
2023-04-16T05:20:34.042Z,4.95
2023-04-16T05:23:36.334Z,6.82
2023-04-16T05:26:38.642Z,5.72
2023-04-16T05:29:41.021Z,3.85
2023-04-16T05:32:43.279Z,4.00
2023-04-16T05:35:45.632Z,5.00
2023-04-16T05:38:47.828Z,4.72
2023-04-16T05:41:50.030Z,5.35
2023-04-16T05:44:52.800Z,6.35
2023-04-16T05:47:55.193Z,4.50
2023-04-16T05:50:57.497Z,5.03
2023-04-16T05:53:59.789Z,5.13
2023-04-16T05:57:02.401Z,5.25
2023-04-16T06:00:05.128Z,6.28
2023-04-16T06:03:14.606Z,5.78
2023-04-16T06:06:17.116Z,5.30
2023-04-16T06:09:20.122Z,5.38
2023-04-16T06:12:22.285Z,5.38
2023-04-16T06:15:24.626Z,5.45
2023-04-16T06:18:26.832Z,7.78
2023-04-16T06:21:29.511Z,7.78
2023-04-16T06:24:31.710Z,5.05
2023-04-16T06:27:34.201Z,6.78
2023-04-16T06:30:36.982Z,6.30
2023-04-16T06:33:39.202Z,7.18
2023-04-16T06:36:41.662Z,5.57
2023-04-16T06:39:44.045Z,5.18
2023-04-16T06:42:47.219Z,5.30
2023-04-16T06:45:50.251Z,5.30
2023-04-16T06:48:52.581Z,5.78
2023-04-16T06:51:54.890Z,7.03
2023-04-16T06:54:57.492Z,6.18
2023-04-16T06:57:59.720Z,6.75
2023-04-16T07:01:02.867Z,6.50
2023-04-16T07:04:05.779Z,4.70
2023-04-16T07:07:08.694Z,5.50
2023-04-16T07:10:11.131Z,6.40
2023-04-16T07:13:13.633Z,4.80
2023-04-16T07:16:15.987Z,6.15
2023-04-16T07:19:18.187Z,6.00
2023-04-16T07:22:21.018Z,5.70
2023-04-16T07:25:23.480Z,5.90
2023-04-16T07:28:26.246Z,4.68
2023-04-16T07:31:28.672Z,5.93
2023-04-16T07:34:31.292Z,6.18
2023-04-16T07:37:33.556Z,5.43
2023-04-16T07:40:36.531Z,4.78
2023-04-16T07:43:39.131Z,6.03
2023-04-16T07:46:46.853Z,4.68
2023-04-16T07:49:50.905Z,7.15
2023-04-16T07:52:53.388Z,6.95
2023-04-16T07:55:55.915Z,6.65
2023-04-16T07:59:02.877Z,5.50
2023-04-16T08:02:14.714Z,6.63
2023-04-16T08:05:17.183Z,4.68
2023-04-16T08:08:19.382Z,5.72
2023-04-16T08:11:21.793Z,6.68
2023-04-16T08:14:24.087Z,4.72
2023-04-16T08:17:26.503Z,5.05
2023-04-16T08:20:28.815Z,5.68
2023-04-16T08:23:31.444Z,4.43
2023-04-16T08:26:34.264Z,4.35
2023-04-16T08:29:36.451Z,5.38
2023-04-16T08:32:38.772Z,5.03
2023-04-16T08:35:41.545Z,5.60
2023-04-16T08:38:43.949Z,7.07
2023-04-16T08:41:47.399Z,5.45
2023-04-16T08:44:53.952Z,4.25
2023-04-16T08:47:56.324Z,5.95
2023-04-16T08:51:01.335Z,5.25
2023-04-16T08:54:05.695Z,5.25
2023-04-16T08:57:12.101Z,13.82
2023-04-16T09:00:15.126Z,16.08
2023-04-16T09:03:17.587Z,10.90
2023-04-16T09:06:20.293Z,9.88
2023-04-16T09:09:23.457Z,8.60
2023-04-16T09:12:26.172Z,10.23
2023-04-16T09:15:29.788Z,7.82
2023-04-16T09:18:32.196Z,7.93
2023-04-16T09:21:34.438Z,12.88
2023-04-16T09:24:38.789Z,10.05
2023-04-16T09:27:41.261Z,7.07
2023-04-16T09:30:43.557Z,9.20
2023-04-16T09:34:03.107Z,8.00
2023-04-16T09:37:18.103Z,4.95
2023-04-16T09:40:26.431Z,5.90
2023-04-16T09:43:28.746Z,8.35
2023-04-16T09:46:41.156Z,6.57
2023-04-16T09:49:43.555Z,14.13
2023-04-16T09:52:51.670Z,6.30
2023-04-16T09:56:00.983Z,6.20
2023-04-16T09:59:03.494Z,4.43
2023-04-16T10:02:15.485Z,12.50
2023-04-16T10:05:20.449Z,9.98
2023-04-16T10:08:24.475Z,5.80
2023-04-16T10:11:27.375Z,6.63
2023-04-16T10:14:29.798Z,5.43
2023-04-16T10:17:32.544Z,6.53
2023-04-16T10:20:35.671Z,4.93
2023-04-16T10:23:40.106Z,4.40
2023-04-16T10:26:42.934Z,6.85
2023-04-16T10:29:46.281Z,9.80
2023-04-16T10:32:49.479Z,12.07
2023-04-16T10:36:04.920Z,8.85
2023-04-16T10:39:16.272Z,9.70
2023-04-16T10:42:19.735Z,7.55
2023-04-16T10:45:27.756Z,4.15
2023-04-16T10:48:38.696Z,4.05
2023-04-16T10:52:03.992Z,4.75
2023-04-16T10:55:06.998Z,4.63
2023-04-16T10:58:36.730Z,6.30
2023-04-16T11:01:46.871Z,4.70
2023-04-16T11:07:52.198Z,7.15
2023-04-16T11:10:56.359Z,4.70
2023-04-16T11:13:58.910Z,3.97
2023-04-16T11:17:06.533Z,5.15
2023-04-16T11:20:20.263Z,8.82
2023-04-16T11:23:22.950Z,8.70
2023-04-16T11:26:27.543Z,6.75
2023-04-16T11:29:29.741Z,5.95
2023-04-16T11:32:33.984Z,5.90
2023-04-16T11:35:36.566Z,4.63
2023-04-16T11:38:41.388Z,5.15
2023-04-16T11:41:47.743Z,3.60
2023-04-16T11:44:57.744Z,5.38
2023-04-16T11:51:02.475Z,8.88
2023-04-16T11:54:04.900Z,7.20
2023-04-16T11:57:07.121Z,6.90
2023-04-16T12:00:14.232Z,6.45
2023-04-16T12:03:16.952Z,5.20
2023-04-16T12:06:19.383Z,5.38
2023-04-16T12:09:26.232Z,5.88
2023-04-16T12:12:31.584Z,4.70
2023-04-16T12:15:51.575Z,6.28
2023-04-16T12:19:01.972Z,4.13
2023-04-16T12:25:10.843Z,3.97
2023-04-16T12:28:14.079Z,4.35
2023-04-16T12:31:16.737Z,5.85
2023-04-16T12:34:20.996Z,4.47
2023-04-16T12:37:23.233Z,4.53
2023-04-16T12:40:25.634Z,4.68
2023-04-16T12:43:31.326Z,5.18
2023-04-16T12:46:33.646Z,5.72
2023-04-16T12:49:36.991Z,4.38
2023-04-16T12:52:39.533Z,6.00
2023-04-16T12:55:42.113Z,5.35
2023-04-16T12:58:44.331Z,4.60
2023-04-16T13:01:46.672Z,4.15
2023-04-16T13:04:49.294Z,4.40
2023-04-16T13:07:51.760Z,5.85
2023-04-16T13:10:54.195Z,4.13
2023-04-16T13:13:56.576Z,5.30
2023-04-16T13:16:59.202Z,6.40
2023-04-16T13:20:01.700Z,4.93
2023-04-16T13:23:05.348Z,3.65
2023-04-16T13:26:07.827Z,4.95
2023-04-16T13:29:11.445Z,4.88
2023-04-16T13:32:14.977Z,4.85
2023-04-16T13:35:17.352Z,4.13
2023-04-16T13:38:19.609Z,3.95
2023-04-16T13:41:21.827Z,3.20
2023-04-16T13:44:24.096Z,4.82
2023-04-16T13:47:26.420Z,4.40
2023-04-16T13:50:28.773Z,3.15
2023-04-16T13:53:31.264Z,5.53
2023-04-16T13:56:33.564Z,3.63
2023-04-16T13:59:35.903Z,3.40
2023-04-16T14:02:38.372Z,4.88
2023-04-16T14:05:41.534Z,4.07
2023-04-16T14:08:45.665Z,2.90
2023-04-16T14:11:47.898Z,4.03
2023-04-16T14:14:50.212Z,6.25
2023-04-16T14:17:52.503Z,2.65
2023-04-16T14:20:54.820Z,5.10
2023-04-16T14:23:57.065Z,3.00
2023-04-16T14:26:59.295Z,3.70
2023-04-16T14:30:01.777Z,4.10
2023-04-16T14:33:07.324Z,4.43
2023-04-16T14:36:10.281Z,3.08
2023-04-16T14:39:12.803Z,3.85
2023-04-16T14:42:15.219Z,2.40
2023-04-16T14:45:17.584Z,2.17
2023-04-16T14:48:20.073Z,2.35
2023-04-16T14:51:22.442Z,2.83
2023-04-16T14:54:24.819Z,3.92
2023-04-16T14:57:27.020Z,3.13
2023-04-16T15:00:29.220Z,2.40
2023-04-16T15:03:31.842Z,2.65
2023-04-16T15:06:35.978Z,2.70
2023-04-16T15:09:38.548Z,3.53
2023-04-16T15:12:41.198Z,3.10
2023-04-16T15:15:44.117Z,3.03
2023-04-16T15:18:46.491Z,4.20
2023-04-16T15:21:48.939Z,4.65
2023-04-16T15:24:51.418Z,4.22
2023-04-16T15:27:53.880Z,5.35
2023-04-16T15:30:56.863Z,3.45
2023-04-16T15:34:00.211Z,4.13
2023-04-16T15:37:02.778Z,3.63
2023-04-16T15:40:06.578Z,3.78
2023-04-16T15:43:08.921Z,3.85
2023-04-16T15:46:11.389Z,2.60
2023-04-16T15:49:13.788Z,3.58
2023-04-16T15:52:16.265Z,2.60
2023-04-16T15:55:18.878Z,3.03
2023-04-16T15:58:21.292Z,3.53
2023-04-16T16:01:23.568Z,3.22
2023-04-16T16:04:26.871Z,3.10
2023-04-16T16:07:29.187Z,3.97
2023-04-16T16:10:31.524Z,3.10
2023-04-16T16:17:11.853Z,4.65
2023-04-16T16:20:14.907Z,3.17
2023-04-16T16:23:17.138Z,4.22
2023-04-16T16:26:20.825Z,4.65
2023-04-16T16:29:23.459Z,3.97
2023-04-16T16:32:25.849Z,3.60
2023-04-16T16:35:28.170Z,4.40
2023-04-16T16:38:30.662Z,3.22
2023-04-16T16:41:37.712Z,3.38
2023-04-16T16:44:39.946Z,3.53
2023-04-16T16:47:42.176Z,3.28
2023-04-16T16:50:44.624Z,2.55
2023-04-16T16:53:46.905Z,2.72
2023-04-16T16:56:49.221Z,3.00
2023-04-16T16:59:51.671Z,3.10
2023-04-16T17:02:54.159Z,3.42
2023-04-16T17:05:56.436Z,2.22
2023-04-16T17:08:58.736Z,2.83
2023-04-16T17:12:01.224Z,2.90
2023-04-16T17:15:04.001Z,2.20
2023-04-16T17:18:06.502Z,2.30
2023-04-16T17:21:09.645Z,2.78
2023-04-16T17:24:14.071Z,2.70
2023-04-16T17:27:17.378Z,2.58
2023-04-16T17:30:19.942Z,2.58
2023-04-16T17:33:22.363Z,2.83
2023-04-16T17:36:25.670Z,2.75
2023-04-16T17:39:28.109Z,2.03
2023-04-16T17:42:30.646Z,2.30
2023-04-16T17:45:33.931Z,2.05
2023-04-16T17:48:36.796Z,2.55
2023-04-16T17:51:39.249Z,2.50
2023-04-16T17:54:42.646Z,2.83
2023-04-16T17:57:45.337Z,2.60
2023-04-16T18:00:47.754Z,2.40
2023-04-16T18:03:50.262Z,2.75
2023-04-16T18:06:52.708Z,2.88
2023-04-16T18:09:55.134Z,2.85
2023-04-16T18:12:57.643Z,2.13
2023-04-16T18:16:00.122Z,2.88
2023-04-16T18:19:02.617Z,2.25
2023-04-16T18:22:05.006Z,2.30
2023-04-16T18:25:08.179Z,2.25
2023-04-16T18:28:13.797Z,4.72
2023-04-16T18:31:20.642Z,2.22
2023-04-16T18:34:25.703Z,2.55
2023-04-16T18:37:28.166Z,2.53
2023-04-16T18:40:34.762Z,2.38
2023-04-16T18:43:37.213Z,3.33
2023-04-16T18:46:39.663Z,2.88
2023-04-16T18:49:42.193Z,2.65
2023-04-16T18:52:44.728Z,2.70
2023-04-16T18:55:47.108Z,4.85
2023-04-16T18:58:49.909Z,2.70
2023-04-16T19:01:52.277Z,1.88
2023-04-16T19:04:54.734Z,2.35
2023-04-16T19:07:57.272Z,2.10
2023-04-16T19:10:59.721Z,2.28
2023-04-16T19:14:03.477Z,2.03
2023-04-16T19:17:05.920Z,2.33
2023-04-16T19:20:11.620Z,3.53
2023-04-16T19:23:14.173Z,3.10
2023-04-16T19:26:16.599Z,2.92
2023-04-16T19:29:19.022Z,2.70
2023-04-16T19:32:21.284Z,2.50
2023-04-16T19:35:23.958Z,2.72
2023-04-16T19:38:26.381Z,2.67
2023-04-16T19:41:28.785Z,2.95
2023-04-16T19:44:32.469Z,3.25
2023-04-16T19:47:34.679Z,3.20
2023-04-16T19:50:42.775Z,2.22
2023-04-16T19:53:45.543Z,3.58
2023-04-16T19:56:51.846Z,3.20
2023-04-16T19:59:55.191Z,3.58
2023-04-16T20:02:57.562Z,2.72
2023-04-16T20:09:38.010Z,3.17
2023-04-16T20:12:40.856Z,3.13
2023-04-16T20:15:43.144Z,3.75
2023-04-16T20:18:46.278Z,3.67
2023-04-16T20:21:48.612Z,3.33
2023-04-16T20:24:55.377Z,2.78
2023-04-16T20:27:57.655Z,3.05
2023-04-16T20:30:59.935Z,3.00
2023-04-16T20:34:02.235Z,3.03
2023-04-16T20:37:07.545Z,3.78
2023-04-16T20:40:11.072Z,3.58
2023-04-16T20:43:14.512Z,4.35
2023-04-16T20:46:17.864Z,3.20
2023-04-16T20:49:20.219Z,3.90
2023-04-16T20:52:22.455Z,3.55
2023-04-16T20:55:24.920Z,4.32
2023-04-16T20:58:30.005Z,3.88
2023-04-16T21:01:33.259Z,3.90
2023-04-16T21:04:35.854Z,4.15
2023-04-16T21:07:38.173Z,4.03
2023-04-16T21:10:41.094Z,4.03
2023-04-16T21:13:43.260Z,4.85
2023-04-16T21:16:45.761Z,5.20
2023-04-16T21:19:47.973Z,5.70
2023-04-16T21:22:51.413Z,5.97
2023-04-16T21:25:56.672Z,5.32
2023-04-16T21:28:59.165Z,6.40
2023-04-16T21:32:01.489Z,4.60
2023-04-16T21:35:04.073Z,5.50
2023-04-16T21:38:06.380Z,5.60
2023-04-16T21:41:08.574Z,5.93
2023-04-16T21:44:10.818Z,4.95
2023-04-16T21:47:13.261Z,4.00
2023-04-16T21:50:15.805Z,4.28
2023-04-16T21:53:18.117Z,4.03
2023-04-16T21:56:20.409Z,5.55
2023-04-16T21:59:23.417Z,3.88
2023-04-16T22:02:26.137Z,4.10
2023-04-16T22:05:29.185Z,4.80
2023-04-16T22:08:31.708Z,5.07
2023-04-16T22:11:34.006Z,5.40
2023-04-16T22:14:37.160Z,4.25
2023-04-16T22:17:40.568Z,4.03
2023-04-16T22:20:42.811Z,5.22
2023-04-16T22:23:45.952Z,4.25
2023-04-16T22:26:48.258Z,4.75
2023-04-16T22:29:50.981Z,4.50
2023-04-16T22:32:53.380Z,6.10
2023-04-16T22:35:55.613Z,5.53
2023-04-16T22:38:57.797Z,4.88
2023-04-16T22:42:00.195Z,6.95
2023-04-16T22:45:02.717Z,5.07
2023-04-16T22:48:05.118Z,5.97
2023-04-16T22:51:10.667Z,5.60
2023-04-16T22:54:13.985Z,5.20
2023-04-16T22:57:17.603Z,6.15
2023-04-16T23:00:20.183Z,4.38
2023-04-16T23:03:22.679Z,4.95
2023-04-16T23:06:25.100Z,5.20
2023-04-16T23:09:27.388Z,4.65
2023-04-16T23:12:29.718Z,4.53
2023-04-16T23:15:32.663Z,4.90
2023-04-16T23:18:35.093Z,7.03
2023-04-16T23:21:37.376Z,4.90
2023-04-16T23:24:39.598Z,4.70
2023-04-16T23:27:41.960Z,6.90
2023-04-16T23:30:44.283Z,3.83
2023-04-16T23:33:46.580Z,3.65
2023-04-16T23:36:48.805Z,4.38
2023-04-16T23:39:51.176Z,4.28
2023-04-16T23:42:53.488Z,5.55
2023-04-16T23:45:55.972Z,4.45
2023-04-16T23:48:58.333Z,5.97
2023-04-16T23:52:00.534Z,6.43
2023-04-16T23:55:02.884Z,3.92
2023-04-16T23:58:05.180Z,5.28
